CheckWX is a tool to help pilots better visualize weather data.  It is not intended as a substitute for an official pre-flight weather briefing.

12:25:23 UTC

LKPD TAF
Pardubice Airport
Pardubice, Czech Republic
TAF LKPD 221100Z 2212/2312 VRB02KT CAVOK PROB30 TEMPO 2302/2307 5000 BR

Mar-22@
12:00 UTC

Mar-22 @ 12:00 UTC

Mar-23@
12:00 UTC

Mar-23 @ 12:00 UTC

TAF LKPD 221100Z 2212/2312 VRB02KT CAVOK
Wind
  • Variable at 2 KTS
Conditions
No significant weather
Cloud Levels
  • No significant clouds

Mar-23@
02:00 UTC

Mar-23 @ 02:00 UTC

Mar-23@
07:00 UTC

Mar-23 @ 07:00 UTC

PROB30 TEMPO 2302/2307 5000 BR

Temporary - 30% Likelihood

Temporary - 30% Likelihood during this time.

Conditions
Mist